sensor_id;sensor_type;location;lat;lon;timestamp;P1;durP1;ratioP1;P2;durP2;ratioP2
11671;SDS011;5892;43.412;24.612;2022-12-24T00:00:07;27.60;;;18.90;;
11671;SDS011;5892;43.412;24.612;2022-12-24T00:02:36;27.47;;;19.10;;
11671;SDS011;5892;43.412;24.612;2022-12-24T00:05:03;22.23;;;17.30;;
11671;SDS011;5892;43.412;24.612;2022-12-24T00:07:32;20.37;;;15.50;;
11671;SDS011;5892;43.412;24.612;2022-12-24T00:09:59;96.53;;;37.20;;
11671;SDS011;5892;43.412;24.612;2022-12-24T00:12:26;34.43;;;19.73;;
11671;SDS011;5892;43.412;24.612;2022-12-24T00:14:53;22.20;;;14.53;;
11671;SDS011;5892;43.412;24.612;2022-12-24T00:17:20;18.30;;;13.23;;
11671;SDS011;5892;43.412;24.612;2022-12-24T00:19:47;19.77;;;14.10;;
11671;SDS011;5892;43.412;24.612;2022-12-24T00:22:14;23.27;;;17.47;;
11671;SDS011;5892;43.412;24.612;2022-12-24T00:24:43;21.53;;;15.77;;
11671;SDS011;5892;43.412;24.612;2022-12-24T00:27:10;22.80;;;16.53;;
11671;SDS011;5892;43.412;24.612;2022-12-24T00:29:37;22.40;;;16.97;;
11671;SDS011;5892;43.412;24.612;2022-12-24T00:32:04;22.40;;;16.77;;
11671;SDS011;5892;43.412;24.612;2022-12-24T00:34:34;25.37;;;18.47;;
11671;SDS011;5892;43.412;24.612;2022-12-24T00:37:01;24.90;;;19.40;;
11671;SDS011;5892;43.412;24.612;2022-12-24T00:39:28;28.80;;;17.87;;
11671;SDS011;5892;43.412;24.612;2022-12-24T00:41:56;23.93;;;16.07;;
11671;SDS011;5892;43.412;24.612;2022-12-24T00:44:23;17.60;;;12.80;;
11671;SDS011;5892;43.412;24.612;2022-12-24T00:46:50;21.70;;;16.80;;
11671;SDS011;5892;43.412;24.612;2022-12-24T00:49:17;19.60;;;15.23;;
11671;SDS011;5892;43.412;24.612;2022-12-24T00:51:44;21.33;;;14.30;;
11671;SDS011;5892;43.412;24.612;2022-12-24T00:54:11;22.00;;;15.83;;
11671;SDS011;5892;43.412;24.612;2022-12-24T00:56:39;18.87;;;14.57;;
11671;SDS011;5892;43.412;24.612;2022-12-24T00:59:08;21.80;;;16.23;;
11671;SDS011;5892;43.412;24.612;2022-12-24T01:01:35;20.90;;;15.87;;
11671;SDS011;5892;43.412;24.612;2022-12-24T01:04:03;22.73;;;15.90;;
11671;SDS011;5892;43.412;24.612;2022-12-24T01:06:47;19.43;;;14.93;;
11671;SDS011;5892;43.412;24.612;2022-12-24T01:09:14;22.40;;;15.63;;
11671;SDS011;5892;43.412;24.612;2022-12-24T01:11:41;19.20;;;15.40;;
11671;SDS011;5892;43.412;24.612;2022-12-24T01:14:11;22.20;;;16.07;;
11671;SDS011;5892;43.412;24.612;2022-12-24T01:16:38;20.13;;;15.47;;
11671;SDS011;5892;43.412;24.612;2022-12-24T01:19:05;19.93;;;15.13;;
11671;SDS011;5892;43.412;24.612;2022-12-24T01:21:32;19.73;;;14.63;;
11671;SDS011;5892;43.412;24.612;2022-12-24T01:23:59;19.30;;;14.87;;
11671;SDS011;5892;43.412;24.612;2022-12-24T01:26:26;21.63;;;15.97;;
11671;SDS011;5892;43.412;24.612;2022-12-24T01:28:53;20.63;;;15.67;;
11671;SDS011;5892;43.412;24.612;2022-12-24T01:31:22;24.83;;;17.87;;
11671;SDS011;5892;43.412;24.612;2022-12-24T01:33:50;21.97;;;15.63;;
11671;SDS011;5892;43.412;24.612;2022-12-24T01:36:17;16.00;;;12.13;;
11671;SDS011;5892;43.412;24.612;2022-12-24T01:38:44;18.63;;;14.00;;
11671;SDS011;5892;43.412;24.612;2022-12-24T01:41:14;18.93;;;14.80;;
11671;SDS011;5892;43.412;24.612;2022-12-24T01:46:50;13.63;;;11.40;;
11671;SDS011;5892;43.412;24.612;2022-12-24T01:49:21;12.43;;;10.07;;
11671;SDS011;5892;43.412;24.612;2022-12-24T01:51:50;14.43;;;11.20;;
11671;SDS011;5892;43.412;24.612;2022-12-24T01:54:22;19.40;;;13.87;;
11671;SDS011;5892;43.412;24.612;2022-12-24T01:56:55;69.57;;;40.53;;
11671;SDS011;5892;43.412;24.612;2022-12-24T01:59:27;26.60;;;19.20;;
11671;SDS011;5892;43.412;24.612;2022-12-24T02:01:56;25.27;;;19.17;;
11671;SDS011;5892;43.412;24.612;2022-12-24T02:04:26;19.50;;;14.87;;
11671;SDS011;5892;43.412;24.612;2022-12-24T02:06:59;22.00;;;16.10;;
11671;SDS011;5892;43.412;24.612;2022-12-24T02:09:26;96.13;;;46.67;;
11671;SDS011;5892;43.412;24.612;2022-12-24T02:11:54;46.53;;;27.93;;
11671;SDS011;5892;43.412;24.612;2022-12-24T02:14:22;29.60;;;17.70;;
11671;SDS011;5892;43.412;24.612;2022-12-24T02:16:53;21.30;;;14.70;;
11671;SDS011;5892;43.412;24.612;2022-12-24T02:19:50;24.37;;;16.97;;
11671;SDS011;5892;43.412;24.612;2022-12-24T02:22:34;18.20;;;13.63;;
11671;SDS011;5892;43.412;24.612;2022-12-24T02:25:22;14.43;;;11.57;;
11671;SDS011;5892;43.412;24.612;2022-12-24T02:27:59;71.80;;;32.43;;
11671;SDS011;5892;43.412;24.612;2022-12-24T02:30:42;141.30;;;59.87;;
11671;SDS011;5892;43.412;24.612;2022-12-24T02:33:17;98.13;;;43.83;;
11671;SDS011;5892;43.412;24.612;2022-12-24T02:35:52;28.57;;;16.00;;
11671;SDS011;5892;43.412;24.612;2022-12-24T02:38:24;27.10;;;16.27;;
11671;SDS011;5892;43.412;24.612;2022-12-24T02:40:55;48.93;;;24.00;;
11671;SDS011;5892;43.412;24.612;2022-12-24T02:43:28;21.37;;;15.67;;
11671;SDS011;5892;43.412;24.612;2022-12-24T02:46:02;22.53;;;15.93;;
11671;SDS011;5892;43.412;24.612;2022-12-24T02:48:32;25.77;;;16.93;;
11671;SDS011;5892;43.412;24.612;2022-12-24T02:51:03;17.40;;;11.73;;
11671;SDS011;5892;43.412;24.612;2022-12-24T02:53:32;14.53;;;11.17;;
11671;SDS011;5892;43.412;24.612;2022-12-24T02:56:07;14.83;;;11.70;;
11671;SDS011;5892;43.412;24.612;2022-12-24T02:58:43;20.40;;;13.77;;
11671;SDS011;5892;43.412;24.612;2022-12-24T03:01:24;29.23;;;18.43;;
11671;SDS011;5892;43.412;24.612;2022-12-24T03:04:03;17.73;;;12.83;;
11671;SDS011;5892;43.412;24.612;2022-12-24T03:06:41;14.70;;;11.50;;
11671;SDS011;5892;43.412;24.612;2022-12-24T03:09:17;40.90;;;22.10;;
11671;SDS011;5892;43.412;24.612;2022-12-24T03:11:58;62.73;;;33.73;;
11671;SDS011;5892;43.412;24.612;2022-12-24T03:14:30;66.47;;;32.77;;
11671;SDS011;5892;43.412;24.612;2022-12-24T03:17:00;36.23;;;21.13;;
11671;SDS011;5892;43.412;24.612;2022-12-24T03:19:28;36.27;;;21.20;;
11671;SDS011;5892;43.412;24.612;2022-12-24T03:21:57;38.13;;;21.73;;
11671;SDS011;5892;43.412;24.612;2022-12-24T03:24:25;19.67;;;13.33;;
11671;SDS011;5892;43.412;24.612;2022-12-24T03:26:53;10.97;;;9.00;;
11671;SDS011;5892;43.412;24.612;2022-12-24T03:29:21;14.33;;;10.80;;
11671;SDS011;5892;43.412;24.612;2022-12-24T03:31:48;54.23;;;26.03;;
11671;SDS011;5892;43.412;24.612;2022-12-24T03:34:18;44.90;;;23.27;;
11671;SDS011;5892;43.412;24.612;2022-12-24T03:36:45;67.40;;;30.23;;
11671;SDS011;5892;43.412;24.612;2022-12-24T03:39:12;186.73;;;67.13;;
11671;SDS011;5892;43.412;24.612;2022-12-24T03:41:39;149.97;;;53.57;;
11671;SDS011;5892;43.412;24.612;2022-12-24T03:44:06;82.23;;;34.10;;
11671;SDS011;5892;43.412;24.612;2022-12-24T03:46:33;126.10;;;46.80;;
11671;SDS011;5892;43.412;24.612;2022-12-24T03:49:00;298.93;;;100.00;;
11671;SDS011;5892;43.412;24.612;2022-12-24T03:51:28;98.47;;;37.93;;
11671;SDS011;5892;43.412;24.612;2022-12-24T03:53:57;135.83;;;49.23;;
11671;SDS011;5892;43.412;24.612;2022-12-24T03:56:25;117.93;;;41.23;;
11671;SDS011;5892;43.412;24.612;2022-12-24T03:58:52;14.83;;;10.03;;
11671;SDS011;5892;43.412;24.612;2022-12-24T04:01:19;17.90;;;10.87;;
11671;SDS011;5892;43.412;24.612;2022-12-24T04:03:46;13.90;;;9.77;;
11671;SDS011;5892;43.412;24.612;2022-12-24T04:06:14;11.90;;;9.47;;
11671;SDS011;5892;43.412;24.612;2022-12-24T04:08:44;12.67;;;9.63;;
11671;SDS011;5892;43.412;24.612;2022-12-24T04:11:12;13.03;;;9.70;;
11671;SDS011;5892;43.412;24.612;2022-12-24T04:13:41;11.60;;;8.73;;
11671;SDS011;5892;43.412;24.612;2022-12-24T04:16:11;10.70;;;9.37;;
11671;SDS011;5892;43.412;24.612;2022-12-24T04:18:40;139.03;;;65.33;;
11671;SDS011;5892;43.412;24.612;2022-12-24T04:21:08;16.33;;;11.87;;
11671;SDS011;5892;43.412;24.612;2022-12-24T04:23:36;33.83;;;20.00;;
11671;SDS011;5892;43.412;24.612;2022-12-24T04:26:06;19.63;;;13.27;;
11671;SDS011;5892;43.412;24.612;2022-12-24T04:28:34;19.50;;;13.23;;
11671;SDS011;5892;43.412;24.612;2022-12-24T04:31:03;14.67;;;11.03;;
11671;SDS011;5892;43.412;24.612;2022-12-24T04:33:32;48.10;;;28.23;;
11671;SDS011;5892;43.412;24.612;2022-12-24T04:35:59;27.93;;;17.40;;
11671;SDS011;5892;43.412;24.612;2022-12-24T04:38:28;45.00;;;27.67;;
11671;SDS011;5892;43.412;24.612;2022-12-24T04:40:59;17.10;;;13.03;;
11671;SDS011;5892;43.412;24.612;2022-12-24T04:43:28;36.37;;;22.70;;
11671;SDS011;5892;43.412;24.612;2022-12-24T04:46:02;34.30;;;22.70;;
11671;SDS011;5892;43.412;24.612;2022-12-24T04:48:30;20.67;;;13.93;;
11671;SDS011;5892;43.412;24.612;2022-12-24T04:50:57;13.53;;;10.03;;
11671;SDS011;5892;43.412;24.612;2022-12-24T04:53:26;15.00;;;11.20;;
11671;SDS011;5892;43.412;24.612;2022-12-24T04:55:54;11.13;;;8.37;;
11671;SDS011;5892;43.412;24.612;2022-12-24T04:58:21;12.23;;;9.33;;
11671;SDS011;5892;43.412;24.612;2022-12-24T05:00:49;11.20;;;7.97;;
11671;SDS011;5892;43.412;24.612;2022-12-24T05:03:16;10.20;;;8.10;;
11671;SDS011;5892;43.412;24.612;2022-12-24T05:05:43;16.20;;;13.27;;
11671;SDS011;5892;43.412;24.612;2022-12-24T05:08:11;13.07;;;10.97;;
11671;SDS011;5892;43.412;24.612;2022-12-24T05:10:38;12.60;;;10.77;;
11671;SDS011;5892;43.412;24.612;2022-12-24T05:13:05;10.73;;;8.90;;
11671;SDS011;5892;43.412;24.612;2022-12-24T05:15:32;10.37;;;8.60;;
11671;SDS011;5892;43.412;24.612;2022-12-24T05:18:00;11.27;;;8.63;;
11671;SDS011;5892;43.412;24.612;2022-12-24T05:20:27;10.80;;;8.73;;
11671;SDS011;5892;43.412;24.612;2022-12-24T05:22:54;35.07;;;21.83;;
11671;SDS011;5892;43.412;24.612;2022-12-24T05:25:38;19.40;;;12.53;;
11671;SDS011;5892;43.412;24.612;2022-12-24T05:28:23;14.97;;;11.83;;
11671;SDS011;5892;43.412;24.612;2022-12-24T05:30:50;14.47;;;10.73;;
11671;SDS011;5892;43.412;24.612;2022-12-24T05:33:19;14.90;;;11.20;;
11671;SDS011;5892;43.412;24.612;2022-12-24T05:35:46;17.67;;;12.63;;
11671;SDS011;5892;43.412;24.612;2022-12-24T05:38:13;16.17;;;12.47;;
11671;SDS011;5892;43.412;24.612;2022-12-24T05:40:39;13.60;;;10.73;;
11671;SDS011;5892;43.412;24.612;2022-12-24T05:43:07;13.17;;;9.93;;
11671;SDS011;5892;43.412;24.612;2022-12-24T05:45:34;12.50;;;9.80;;
11671;SDS011;5892;43.412;24.612;2022-12-24T05:48:00;23.67;;;14.30;;
11671;SDS011;5892;43.412;24.612;2022-12-24T05:50:29;13.70;;;10.07;;
11671;SDS011;5892;43.412;24.612;2022-12-24T05:52:55;11.87;;;8.83;;
11671;SDS011;5892;43.412;24.612;2022-12-24T05:55:22;12.77;;;8.53;;
11671;SDS011;5892;43.412;24.612;2022-12-24T05:57:49;9.40;;;7.53;;
11671;SDS011;5892;43.412;24.612;2022-12-24T06:00:16;9.83;;;6.50;;
11671;SDS011;5892;43.412;24.612;2022-12-24T06:02:44;9.23;;;7.30;;
11671;SDS011;5892;43.412;24.612;2022-12-24T06:05:10;9.70;;;7.23;;
11671;SDS011;5892;43.412;24.612;2022-12-24T06:07:39;10.17;;;6.77;;
11671;SDS011;5892;43.412;24.612;2022-12-24T06:10:06;12.73;;;9.63;;
11671;SDS011;5892;43.412;24.612;2022-12-24T06:12:34;51.70;;;25.63;;
11671;SDS011;5892;43.412;24.612;2022-12-24T06:15:01;232.97;;;107.97;;
11671;SDS011;5892;43.412;24.612;2022-12-24T06:17:28;37.37;;;23.50;;
11671;SDS011;5892;43.412;24.612;2022-12-24T06:19:55;60.53;;;32.03;;
11671;SDS011;5892;43.412;24.612;2022-12-24T06:22:22;16.03;;;11.20;;
11671;SDS011;5892;43.412;24.612;2022-12-24T06:24:51;28.67;;;18.23;;
11671;SDS011;5892;43.412;24.612;2022-12-24T06:27:17;29.47;;;20.53;;
11671;SDS011;5892;43.412;24.612;2022-12-24T06:29:45;19.67;;;13.70;;
11671;SDS011;5892;43.412;24.612;2022-12-24T06:32:12;13.63;;;10.40;;
11671;SDS011;5892;43.412;24.612;2022-12-24T06:34:39;24.97;;;16.30;;
11671;SDS011;5892;43.412;24.612;2022-12-24T06:37:06;23.67;;;16.13;;
11671;SDS011;5892;43.412;24.612;2022-12-24T06:39:34;23.57;;;16.43;;
11671;SDS011;5892;43.412;24.612;2022-12-24T06:42:02;24.37;;;16.37;;
11671;SDS011;5892;43.412;24.612;2022-12-24T06:44:29;25.93;;;16.57;;
11671;SDS011;5892;43.412;24.612;2022-12-24T06:46:56;24.33;;;16.90;;
11671;SDS011;5892;43.412;24.612;2022-12-24T06:49:23;24.33;;;16.27;;
11671;SDS011;5892;43.412;24.612;2022-12-24T06:51:51;26.50;;;17.37;;
11671;SDS011;5892;43.412;24.612;2022-12-24T06:54:19;26.73;;;19.23;;
11671;SDS011;5892;43.412;24.612;2022-12-24T06:56:46;27.80;;;19.07;;
11671;SDS011;5892;43.412;24.612;2022-12-24T06:59:14;24.40;;;17.73;;
11671;SDS011;5892;43.412;24.612;2022-12-24T07:01:43;29.43;;;19.73;;
11671;SDS011;5892;43.412;24.612;2022-12-24T07:04:10;29.60;;;20.30;;
11671;SDS011;5892;43.412;24.612;2022-12-24T07:06:37;31.37;;;20.17;;
11671;SDS011;5892;43.412;24.612;2022-12-24T07:09:06;27.33;;;21.47;;
11671;SDS011;5892;43.412;24.612;2022-12-24T07:11:34;35.97;;;22.00;;
11671;SDS011;5892;43.412;24.612;2022-12-24T07:14:05;28.20;;;20.87;;
11671;SDS011;5892;43.412;24.612;2022-12-24T07:16:36;27.00;;;20.17;;
11671;SDS011;5892;43.412;24.612;2022-12-24T07:19:03;26.53;;;20.97;;
11671;SDS011;5892;43.412;24.612;2022-12-24T07:21:34;27.90;;;20.63;;
11671;SDS011;5892;43.412;24.612;2022-12-24T07:24:03;29.63;;;21.50;;
11671;SDS011;5892;43.412;24.612;2022-12-24T07:26:31;32.00;;;21.47;;
11671;SDS011;5892;43.412;24.612;2022-12-24T07:28:59;32.07;;;23.30;;
11671;SDS011;5892;43.412;24.612;2022-12-24T07:31:26;31.57;;;22.73;;
11671;SDS011;5892;43.412;24.612;2022-12-24T07:36:41;38.13;;;28.37;;
11671;SDS011;5892;43.412;24.612;2022-12-24T07:39:09;36.60;;;26.40;;
11671;SDS011;5892;43.412;24.612;2022-12-24T07:41:36;56.87;;;36.07;;
11671;SDS011;5892;43.412;24.612;2022-12-24T07:44:20;55.27;;;37.40;;
11671;SDS011;5892;43.412;24.612;2022-12-24T07:46:48;54.10;;;35.07;;
11671;SDS011;5892;43.412;24.612;2022-12-24T07:49:21;49.47;;;31.90;;
11671;SDS011;5892;43.412;24.612;2022-12-24T07:51:48;39.17;;;28.77;;
11671;SDS011;5892;43.412;24.612;2022-12-24T07:54:15;41.73;;;28.83;;
11671;SDS011;5892;43.412;24.612;2022-12-24T07:56:43;37.13;;;27.90;;
11671;SDS011;5892;43.412;24.612;2022-12-24T07:59:10;41.80;;;29.07;;
11671;SDS011;5892;43.412;24.612;2022-12-24T08:01:38;39.67;;;29.53;;
11671;SDS011;5892;43.412;24.612;2022-12-24T08:04:06;37.47;;;27.27;;
11671;SDS011;5892;43.412;24.612;2022-12-24T08:06:34;35.60;;;27.50;;
11671;SDS011;5892;43.412;24.612;2022-12-24T08:09:02;36.07;;;26.30;;
11671;SDS011;5892;43.412;24.612;2022-12-24T08:11:30;34.73;;;25.00;;
11671;SDS011;5892;43.412;24.612;2022-12-24T08:13:59;37.50;;;25.17;;
11671;SDS011;5892;43.412;24.612;2022-12-24T08:16:26;40.33;;;25.80;;
11671;SDS011;5892;43.412;24.612;2022-12-24T08:18:56;32.77;;;23.60;;
11671;SDS011;5892;43.412;24.612;2022-12-24T08:21:23;32.47;;;23.60;;
11671;SDS011;5892;43.412;24.612;2022-12-24T08:23:52;32.63;;;22.97;;
11671;SDS011;5892;43.412;24.612;2022-12-24T08:26:20;34.13;;;24.07;;
11671;SDS011;5892;43.412;24.612;2022-12-24T08:28:47;36.60;;;25.33;;
11671;SDS011;5892;43.412;24.612;2022-12-24T08:31:14;45.17;;;30.53;;
11671;SDS011;5892;43.412;24.612;2022-12-24T08:33:41;49.97;;;34.07;;
11671;SDS011;5892;43.412;24.612;2022-12-24T08:36:09;43.80;;;32.10;;
11671;SDS011;5892;43.412;24.612;2022-12-24T08:38:36;30.87;;;23.20;;
11671;SDS011;5892;43.412;24.612;2022-12-24T08:41:06;35.40;;;23.43;;
11671;SDS011;5892;43.412;24.612;2022-12-24T08:43:34;32.27;;;23.57;;
11671;SDS011;5892;43.412;24.612;2022-12-24T08:46:02;45.10;;;25.87;;
11671;SDS011;5892;43.412;24.612;2022-12-24T08:48:30;51.33;;;35.40;;
11671;SDS011;5892;43.412;24.612;2022-12-24T08:50:58;44.87;;;28.87;;
11671;SDS011;5892;43.412;24.612;2022-12-24T08:53:26;80.90;;;43.20;;
11671;SDS011;5892;43.412;24.612;2022-12-24T08:55:59;39.00;;;25.87;;
11671;SDS011;5892;43.412;24.612;2022-12-24T08:58:45;33.97;;;25.03;;
11671;SDS011;5892;43.412;24.612;2022-12-24T09:01:13;37.67;;;25.80;;
11671;SDS011;5892;43.412;24.612;2022-12-24T09:03:42;40.53;;;25.00;;
11671;SDS011;5892;43.412;24.612;2022-12-24T09:06:10;48.03;;;28.73;;
11671;SDS011;5892;43.412;24.612;2022-12-24T09:08:37;39.20;;;26.23;;
11671;SDS011;5892;43.412;24.612;2022-12-24T09:11:06;41.27;;;26.53;;
11671;SDS011;5892;43.412;24.612;2022-12-24T09:13:35;48.93;;;35.30;;
11671;SDS011;5892;43.412;24.612;2022-12-24T09:16:08;56.07;;;44.30;;
11671;SDS011;5892;43.412;24.612;2022-12-24T09:18:39;94.47;;;73.90;;
11671;SDS011;5892;43.412;24.612;2022-12-24T09:21:08;101.90;;;75.03;;
11671;SDS011;5892;43.412;24.612;2022-12-24T09:23:47;73.27;;;59.67;;
11671;SDS011;5892;43.412;24.612;2022-12-24T09:26:15;80.87;;;66.67;;
11671;SDS011;5892;43.412;24.612;2022-12-24T09:28:44;77.60;;;64.17;;
11671;SDS011;5892;43.412;24.612;2022-12-24T09:31:21;321.93;;;161.27;;
11671;SDS011;5892;43.412;24.612;2022-12-24T09:33:49;381.33;;;169.77;;
11671;SDS011;5892;43.412;24.612;2022-12-24T09:36:17;678.27;;;282.80;;
11671;SDS011;5892;43.412;24.612;2022-12-24T09:38:49;453.20;;;188.77;;
11671;SDS011;5892;43.412;24.612;2022-12-24T09:41:23;204.97;;;100.53;;
11671;SDS011;5892;43.412;24.612;2022-12-24T09:44:00;286.23;;;129.17;;
11671;SDS011;5892;43.412;24.612;2022-12-24T09:46:36;224.53;;;115.57;;
11671;SDS011;5892;43.412;24.612;2022-12-24T09:49:09;396.10;;;159.10;;
11671;SDS011;5892;43.412;24.612;2022-12-24T09:51:41;290.00;;;127.07;;
11671;SDS011;5892;43.412;24.612;2022-12-24T09:54:14;242.37;;;115.50;;
11671;SDS011;5892;43.412;24.612;2022-12-24T09:56:46;281.60;;;125.67;;
11671;SDS011;5892;43.412;24.612;2022-12-24T09:59:15;280.87;;;123.80;;
11671;SDS011;5892;43.412;24.612;2022-12-24T10:01:49;209.07;;;100.10;;
11671;SDS011;5892;43.412;24.612;2022-12-24T10:04:19;87.10;;;49.73;;
11671;SDS011;5892;43.412;24.612;2022-12-24T10:06:49;43.40;;;33.13;;
11671;SDS011;5892;43.412;24.612;2022-12-24T10:09:23;61.00;;;40.40;;
11671;SDS011;5892;43.412;24.612;2022-12-24T10:12:01;116.43;;;69.50;;
11671;SDS011;5892;43.412;24.612;2022-12-24T10:14:49;64.43;;;44.13;;
11671;SDS011;5892;43.412;24.612;2022-12-24T10:17:40;68.70;;;46.73;;
11671;SDS011;5892;43.412;24.612;2022-12-24T10:20:23;44.10;;;34.87;;
11671;SDS011;5892;43.412;24.612;2022-12-24T10:23:02;99.67;;;66.47;;
11671;SDS011;5892;43.412;24.612;2022-12-24T10:25:35;118.77;;;68.57;;
11671;SDS011;5892;43.412;24.612;2022-12-24T10:28:11;76.57;;;48.67;;
11671;SDS011;5892;43.412;24.612;2022-12-24T10:30:42;66.00;;;46.00;;
11671;SDS011;5892;43.412;24.612;2022-12-24T10:33:27;48.63;;;37.60;;
11671;SDS011;5892;43.412;24.612;2022-12-24T10:35:59;46.23;;;31.53;;
11671;SDS011;5892;43.412;24.612;2022-12-24T10:38:34;48.67;;;34.63;;
11671;SDS011;5892;43.412;24.612;2022-12-24T10:41:02;40.50;;;31.03;;
11671;SDS011;5892;43.412;24.612;2022-12-24T10:43:29;44.37;;;34.33;;
11671;SDS011;5892;43.412;24.612;2022-12-24T10:45:58;52.00;;;36.73;;
11671;SDS011;5892;43.412;24.612;2022-12-24T10:48:36;263.70;;;124.87;;
11671;SDS011;5892;43.412;24.612;2022-12-24T10:51:12;191.27;;;98.73;;
11671;SDS011;5892;43.412;24.612;2022-12-24T10:53:47;75.10;;;46.53;;
11671;SDS011;5892;43.412;24.612;2022-12-24T11:16:45;37.40;;;30.00;;
11671;SDS011;5892;43.412;24.612;2022-12-24T11:19:17;51.17;;;34.87;;
11671;SDS011;5892;43.412;24.612;2022-12-24T11:21:47;33.27;;;27.73;;
11671;SDS011;5892;43.412;24.612;2022-12-24T11:24:26;33.20;;;26.27;;
11671;SDS011;5892;43.412;24.612;2022-12-24T11:29:50;34.10;;;27.97;;
11671;SDS011;5892;43.412;24.612;2022-12-24T11:32:21;34.80;;;28.37;;
11671;SDS011;5892;43.412;24.612;2022-12-24T11:34:48;34.10;;;27.33;;
11671;SDS011;5892;43.412;24.612;2022-12-24T11:37:18;31.47;;;26.80;;
11671;SDS011;5892;43.412;24.612;2022-12-24T11:39:53;30.93;;;25.10;;
11671;SDS011;5892;43.412;24.612;2022-12-24T11:42:26;32.43;;;25.50;;
11671;SDS011;5892;43.412;24.612;2022-12-24T11:45:07;31.77;;;24.80;;
11671;SDS011;5892;43.412;24.612;2022-12-24T11:47:54;31.33;;;26.23;;
11671;SDS011;5892;43.412;24.612;2022-12-24T11:50:24;31.63;;;25.80;;
11671;SDS011;5892;43.412;24.612;2022-12-24T11:52:59;29.50;;;25.90;;
11671;SDS011;5892;43.412;24.612;2022-12-24T11:55:35;32.27;;;27.40;;
11671;SDS011;5892;43.412;24.612;2022-12-24T11:58:16;32.90;;;25.47;;
11671;SDS011;5892;43.412;24.612;2022-12-24T12:00:51;31.57;;;25.43;;
11671;SDS011;5892;43.412;24.612;2022-12-24T12:03:29;30.97;;;26.43;;
11671;SDS011;5892;43.412;24.612;2022-12-24T12:05:58;31.83;;;26.47;;
11671;SDS011;5892;43.412;24.612;2022-12-24T12:08:29;34.53;;;26.70;;
11671;SDS011;5892;43.412;24.612;2022-12-24T12:10:58;38.10;;;29.00;;
11671;SDS011;5892;43.412;24.612;2022-12-24T12:13:29;28.20;;;22.47;;
11671;SDS011;5892;43.412;24.612;2022-12-24T12:16:02;36.13;;;28.17;;
11671;SDS011;5892;43.412;24.612;2022-12-24T12:32:47;43.60;;;35.13;;
11671;SDS011;5892;43.412;24.612;2022-12-24T12:35:29;40.30;;;32.60;;
11671;SDS011;5892;43.412;24.612;2022-12-24T12:38:00;41.70;;;32.87;;
11671;SDS011;5892;43.412;24.612;2022-12-24T12:40:50;43.27;;;32.73;;
11671;SDS011;5892;43.412;24.612;2022-12-24T12:46:37;33.73;;;26.47;;
11671;SDS011;5892;43.412;24.612;2022-12-24T12:52:03;49.97;;;35.30;;
11671;SDS011;5892;43.412;24.612;2022-12-24T12:54:41;42.77;;;30.83;;
11671;SDS011;5892;43.412;24.612;2022-12-24T12:57:18;51.47;;;35.80;;
11671;SDS011;5892;43.412;24.612;2022-12-24T12:59:53;32.43;;;23.30;;
11671;SDS011;5892;43.412;24.612;2022-12-24T13:02:34;33.17;;;26.33;;
11671;SDS011;5892;43.412;24.612;2022-12-24T13:05:35;39.93;;;31.77;;
11671;SDS011;5892;43.412;24.612;2022-12-24T13:08:26;35.87;;;27.27;;
11671;SDS011;5892;43.412;24.612;2022-12-24T13:11:05;27.23;;;21.47;;
11671;SDS011;5892;43.412;24.612;2022-12-24T13:13:48;29.00;;;23.57;;
11671;SDS011;5892;43.412;24.612;2022-12-24T13:16:40;21.83;;;17.57;;
11671;SDS011;5892;43.412;24.612;2022-12-24T13:19:24;21.97;;;17.30;;
11671;SDS011;5892;43.412;24.612;2022-12-24T13:22:15;45.97;;;34.33;;
11671;SDS011;5892;43.412;24.612;2022-12-24T13:24:46;35.27;;;27.57;;
11671;SDS011;5892;43.412;24.612;2022-12-24T13:27:15;31.50;;;26.77;;
11671;SDS011;5892;43.412;24.612;2022-12-24T13:29:50;34.70;;;27.47;;
11671;SDS011;5892;43.412;24.612;2022-12-24T13:44:22;33.53;;;25.47;;
11671;SDS011;5892;43.412;24.612;2022-12-24T13:46:57;54.00;;;40.13;;
11671;SDS011;5892;43.412;24.612;2022-12-24T13:49:34;116.30;;;64.63;;
11671;SDS011;5892;43.412;24.612;2022-12-24T13:55:01;34.13;;;26.47;;
11671;SDS011;5892;43.412;24.612;2022-12-24T13:57:34;32.67;;;24.47;;
11671;SDS011;5892;43.412;24.612;2022-12-24T14:00:21;35.57;;;26.30;;
11671;SDS011;5892;43.412;24.612;2022-12-24T14:02:57;45.60;;;32.60;;
11671;SDS011;5892;43.412;24.612;2022-12-24T14:05:31;32.20;;;24.17;;
11671;SDS011;5892;43.412;24.612;2022-12-24T14:11:19;162.50;;;78.47;;
11671;SDS011;5892;43.412;24.612;2022-12-24T14:13:52;75.73;;;42.93;;
11671;SDS011;5892;43.412;24.612;2022-12-24T14:16:40;150.57;;;70.63;;
11671;SDS011;5892;43.412;24.612;2022-12-24T14:19:11;488.10;;;207.17;;
11671;SDS011;5892;43.412;24.612;2022-12-24T14:21:41;400.27;;;173.83;;
11671;SDS011;5892;43.412;24.612;2022-12-24T14:24:30;306.07;;;136.13;;
11671;SDS011;5892;43.412;24.612;2022-12-24T14:27:16;312.27;;;143.30;;
11671;SDS011;5892;43.412;24.612;2022-12-24T14:29:47;270.33;;;130.97;;
11671;SDS011;5892;43.412;24.612;2022-12-24T14:32:18;170.37;;;90.80;;
11671;SDS011;5892;43.412;24.612;2022-12-24T14:34:45;130.03;;;69.27;;
11671;SDS011;5892;43.412;24.612;2022-12-24T14:37:12;232.23;;;138.27;;
11671;SDS011;5892;43.412;24.612;2022-12-24T14:39:45;227.77;;;127.53;;
11671;SDS011;5892;43.412;24.612;2022-12-24T14:42:28;281.70;;;177.50;;
11671;SDS011;5892;43.412;24.612;2022-12-24T14:45:14;100.57;;;69.50;;
11671;SDS011;5892;43.412;24.612;2022-12-24T14:47:54;50.43;;;37.60;;
11671;SDS011;5892;43.412;24.612;2022-12-24T14:50:35;50.20;;;43.23;;
11671;SDS011;5892;43.412;24.612;2022-12-24T14:53:18;37.43;;;28.00;;
11671;SDS011;5892;43.412;24.612;2022-12-24T14:55:54;52.10;;;44.63;;
11671;SDS011;5892;43.412;24.612;2022-12-24T14:58:25;41.07;;;34.90;;
11671;SDS011;5892;43.412;24.612;2022-12-24T15:00:55;34.17;;;27.93;;
11671;SDS011;5892;43.412;24.612;2022-12-24T15:03:27;35.10;;;27.23;;
11671;SDS011;5892;43.412;24.612;2022-12-24T15:05:58;37.10;;;29.43;;
11671;SDS011;5892;43.412;24.612;2022-12-24T15:08:28;33.97;;;27.13;;
11671;SDS011;5892;43.412;24.612;2022-12-24T15:11:01;52.57;;;31.83;;
11671;SDS011;5892;43.412;24.612;2022-12-24T15:13:36;50.17;;;27.63;;
11671;SDS011;5892;43.412;24.612;2022-12-24T15:16:06;25.33;;;17.77;;
11671;SDS011;5892;43.412;24.612;2022-12-24T15:18:38;17.23;;;12.83;;
11671;SDS011;5892;43.412;24.612;2022-12-24T15:21:13;20.53;;;15.43;;
11671;SDS011;5892;43.412;24.612;2022-12-24T15:23:44;21.53;;;13.10;;
11671;SDS011;5892;43.412;24.612;2022-12-24T15:26:15;18.70;;;13.00;;
11671;SDS011;5892;43.412;24.612;2022-12-24T15:28:48;24.37;;;17.77;;
11671;SDS011;5892;43.412;24.612;2022-12-24T15:31:16;17.00;;;13.87;;
11671;SDS011;5892;43.412;24.612;2022-12-24T15:33:46;28.53;;;22.27;;
11671;SDS011;5892;43.412;24.612;2022-12-24T15:36:16;24.80;;;20.77;;
11671;SDS011;5892;43.412;24.612;2022-12-24T15:38:51;19.27;;;14.73;;
11671;SDS011;5892;43.412;24.612;2022-12-24T15:41:21;22.70;;;19.67;;
11671;SDS011;5892;43.412;24.612;2022-12-24T15:43:53;28.07;;;22.30;;
11671;SDS011;5892;43.412;24.612;2022-12-24T15:46:27;22.40;;;19.07;;
11671;SDS011;5892;43.412;24.612;2022-12-24T15:48:56;23.20;;;19.10;;
11671;SDS011;5892;43.412;24.612;2022-12-24T15:51:25;31.57;;;24.27;;